Pos Driver Car Best lap Gap to 1st S1 Valid Laps Date Grip Amb./Track Tyres vMax Ballast
201. Racoon GT86 03:10.508 +188.553 - yes 1 2024-06-06 22:38 100.0% 24 °C/27 °C ? 74 km/h -
202. GreatDane 911 GT3 RS 03:17.785 +195.830 - yes 1 2023-11-18 15:00 100.0% 24 °C/27 °C ? 103 km/h -
203. balls RX-7 Spirit R 03:24.360 +202.405 - yes 1 2026-03-02 09:32 100.0% 24 °C/28 °C ? 187 km/h -
204. daniel.alberer M4 03:26.961 +205.006 - yes 1 2025-07-01 15:33 100.0% 23 °C/26 °C ? 49 km/h -
205. huss GT40 03:33.947 +211.992 - yes 3 2023-04-28 09:02 100.0% 23 °C/26 °C ? 54 km/h -
206. Lemborghini M4 03:34.278 +212.323 - yes 2 2021-11-07 09:57 100.0% 19 °C/22 °C ? 63 km/h -
207. nnnnn 488 GTB 03:37.351 +215.396 - yes 1 2025-06-11 07:33 100.0% 23 °C/27 °C ? 21 km/h -
208. Caveman M4 Akrapovic 03:39.247 +217.292 - yes 1 2026-02-03 00:36 100.0% 24 °C/28 °C ? 81 km/h -
209. Pako M4 Akrapovic 03:40.582 +218.627 - yes 1 2022-06-28 23:39 100.0% 24 °C/28 °C ? 100 km/h -
210. Kai Makkonen 250 GTO 03:41.050 +219.095 - yes 2 2024-02-02 16:51 100.0% 23 °C/27 °C ? 51 km/h -
211. paly 458 Italia Stage 3 03:41.500 +219.545 - yes 1 2024-04-01 15:53 100.0% 23 °C/27 °C ? 45 km/h -
212. Katsuchi F40 03:44.060 +222.105 - yes 1 2024-02-02 16:51 100.0% 23 °C/27 °C ? 43 km/h -
213. Player Escort RS1600 03:46.738 +224.783 - yes 1 2024-10-20 17:11 100.0% 23 °C/26 °C ? 49 km/h -
214. MrRGB Supra MKIV 03:47.345 +225.390 - yes 1 2021-11-20 12:19 100.0% 20 °C/23 °C ? 46 km/h -
215. Ulquiorra 4C 03:49.333 +227.378 - yes 1 2021-11-22 12:00 100.0% 20 °C/23 °C ? 89 km/h -
216. Prometheus RX-7 Spirit R 03:51.842 +229.887 - yes 2 2023-06-11 14:02 100.0% 23 °C/26 °C ? 77 km/h -
217. stan_prv92 911 GT3 RS 03:52.029 +230.074 - yes 2 2023-03-03 21:00 100.0% 23 °C/27 °C ? 109 km/h -
218. huss RX-7 Spirit R 03:53.811 +231.856 - yes 2 2023-06-11 14:02 100.0% 23 °C/26 °C ? 55 km/h -
219. yakasan01r Skyline GTR R34 V-Spec 03:54.440 +232.485 - yes 3 2024-10-23 15:53 100.0% 23 °C/27 °C ? 53 km/h -
220. WTF AM I DOING F40 03:56.890 +234.935 - yes 3 2021-12-16 04:16 100.0% 19 °C/23 °C ? 53 km/h -
221. WowKindaCool Miura P400 SV 03:57.989 +236.034 - yes 1 2022-07-06 10:02 100.0% 24 °C/28 °C ? 31 km/h -
222. Harpzero 33 Stradale 03:59.378 +237.423 03:59.378 yes 1 2021-10-28 06:35 100.0% 20 °C/23 °C V 134 km/h 0.0 kg
223. 687_Yoshi GT86 03:59.806 +237.851 - yes 4 2021-12-16 04:16 100.0% 19 °C/23 °C ? 57 km/h -
224. Liberty.Walk. MP4-12C 04:01.915 +239.960 - yes 1 2024-06-18 13:31 100.0% 24 °C/27 °C ? 87 km/h -
225. LuckyLlama Miura P400 SV 04:02.455 +240.500 - yes 1 2024-06-03 12:43 100.0% 24 °C/28 °C ? 98 km/h -
226. Harpzero 911 GT3 RS 04:05.449 +243.494 04:05.449 yes 1 2021-10-28 06:24 100.0% 20 °C/23 °C HR 185 km/h 0.0 kg
227. VFD_Beanos Escort RS1600 04:07.205 +245.250 - yes 1 2024-01-24 09:30 100.0% 24 °C/28 °C ? 48 km/h -
228. Player RX-7 Spirit R 04:07.229 +245.274 - yes 1 2024-04-01 15:39 100.0% 23 °C/27 °C ? 41 km/h -
229. Liberty.Walk. 33 Stradale 04:11.678 +249.723 - yes 1 2022-06-22 19:21 100.0% 24 °C/28 °C ? 55 km/h -
230. LB 6899 GT86 04:14.039 +252.084 - yes 1 2024-04-01 15:39 100.0% 23 °C/27 °C ? 58 km/h -
231. Kin Gaming GT-R NISMO 04:15.375 +253.420 - yes 1 2025-11-25 03:18 100.0% 24 °C/27 °C ? 118 km/h -
232. Ulquiorra GTA 04:15.656 +253.701 - yes 2 2021-11-22 11:45 100.0% 20 °C/23 °C ? 75 km/h -
233. Biel 458 Italia Stage 3 04:25.632 +263.677 - yes 1 2024-08-13 23:48 100.0% 24 °C/27 °C ? 96 km/h -
234. Ultrasonic Starfire GT-R NISMO 04:27.852 +265.897 - yes 1 2025-01-05 23:40 100.0% 24 °C/28 °C ? 84 km/h -
235. ANSON929 M4 Akrapovic 04:30.528 +268.573 - yes 1 2021-12-08 08:23 100.0% 19 °C/22 °C ? 53 km/h -
236. rubengs2005 911 GT3 RS 04:33.426 +271.471 - yes 1 2024-06-09 14:44 100.0% 23 °C/26 °C ? 142 km/h -
237. NullJaguar50030 911 GT3 RS 04:34.017 +272.062 - yes 1 2026-05-08 15:28 100.0% 24 °C/28 °C ? 28 km/h -
238. Jaaames.Bond 3-Eleven 04:35.885 +273.930 - yes 1 2022-04-18 11:11 100.0% 23 °C/27 °C ? 91 km/h -
239. KuttahLad X-Bow R 04:36.341 +274.386 - yes 2 2023-04-22 05:36 100.0% 24 °C/27 °C ? 94 km/h -
240. Edna Supra MKIV 04:38.799 +276.844 - yes 1 2026-06-17 10:35 100.0% 24 °C/27 °C ? 64 km/h -
241. trickyman22 Exige 240R Stage3 04:44.255 +282.300 - yes 2 2021-12-16 04:23 100.0% 19 °C/23 °C ? 39 km/h -
242. Turnip 488 GTB 04:53.407 +291.452 - yes 2 2023-04-01 10:17 100.0% 23 °C/27 °C ? 72 km/h -
243. Flavio Pigolotti 488 GTB 04:58.015 +296.060 - yes 1 2024-01-21 18:14 100.0% 23 °C/26 °C ? 140 km/h -
244. Player Escort RS1600 05:04.475 +302.520 - yes 1 2024-02-13 13:40 100.0% 23 °C/26 °C ? 41 km/h -
245. Lindradori Skyline GTR R34 V-Spec 05:11.929 +309.974 - yes 1 2023-02-23 04:14 100.0% 23 °C/27 °C ? 59 km/h -
246. Wildany GT-R NISMO 05:27.705 +325.750 - yes 1 2023-02-10 10:51 100.0% 24 °C/28 °C ? 39 km/h -
247. Mateusz Maj Skyline GTR R34 V-Spec 05:30.589 +328.634 - yes 1 2023-07-06 22:29 100.0% 23 °C/27 °C ? 25 km/h -
248. AvGas Miura P400 SV 05:38.303 +336.348 - yes 1 2025-08-04 00:11 100.0% 23 °C/27 °C ? 82 km/h -
249. Guffie GT-R NISMO 05:38.334 +336.379 - yes 1 2024-07-09 19:26 100.0% 23 °C/26 °C ? 59 km/h -
250. Evxnn_ M4 Akrapovic 05:41.378 +339.423 - yes 1 2023-12-17 22:01 100.0% 23 °C/27 °C ? 58 km/h -